sensor_id;sensor_type;location;lat;lon;timestamp;P1;durP1;ratioP1;P2;durP2;ratioP2
4232;SDS011;2130;48.472;11.934;2024-01-30T00:00:15;19.40;;;3.63;;
4232;SDS011;2130;48.472;11.934;2024-01-30T00:02:45;16.13;;;3.50;;
4232;SDS011;2130;48.472;11.934;2024-01-30T00:05:17;19.43;;;3.40;;
4232;SDS011;2130;48.472;11.934;2024-01-30T00:07:47;16.17;;;3.20;;
4232;SDS011;2130;48.472;11.934;2024-01-30T00:10:16;15.70;;;2.43;;
4232;SDS011;2130;48.472;11.934;2024-01-30T00:12:46;16.50;;;3.40;;
4232;SDS011;2130;48.472;11.934;2024-01-30T00:15:15;24.03;;;4.50;;
4232;SDS011;2130;48.472;11.934;2024-01-30T00:17:45;17.57;;;3.00;;
4232;SDS011;2130;48.472;11.934;2024-01-30T00:20:15;16.87;;;4.10;;
4232;SDS011;2130;48.472;11.934;2024-01-30T00:22:46;15.80;;;3.00;;
4232;SDS011;2130;48.472;11.934;2024-01-30T00:25:16;16.60;;;3.77;;
4232;SDS011;2130;48.472;11.934;2024-01-30T00:27:46;15.97;;;3.10;;
4232;SDS011;2130;48.472;11.934;2024-01-30T00:30:17;19.63;;;3.23;;
4232;SDS011;2130;48.472;11.934;2024-01-30T00:32:47;20.57;;;3.70;;
4232;SDS011;2130;48.472;11.934;2024-01-30T00:35:16;15.40;;;3.00;;
4232;SDS011;2130;48.472;11.934;2024-01-30T00:37:48;16.43;;;3.43;;
4232;SDS011;2130;48.472;11.934;2024-01-30T00:40:17;18.60;;;3.43;;
4232;SDS011;2130;48.472;11.934;2024-01-30T00:42:46;15.13;;;3.20;;
4232;SDS011;2130;48.472;11.934;2024-01-30T00:45:16;17.53;;;3.50;;
4232;SDS011;2130;48.472;11.934;2024-01-30T00:47:45;17.23;;;3.10;;
4232;SDS011;2130;48.472;11.934;2024-01-30T00:50:15;17.80;;;3.17;;
4232;SDS011;2130;48.472;11.934;2024-01-30T00:52:45;19.13;;;3.23;;
4232;SDS011;2130;48.472;11.934;2024-01-30T00:55:15;16.03;;;3.07;;
4232;SDS011;2130;48.472;11.934;2024-01-30T00:57:46;17.67;;;3.20;;
4232;SDS011;2130;48.472;11.934;2024-01-30T01:00:16;16.60;;;3.20;;
4232;SDS011;2130;48.472;11.934;2024-01-30T01:02:48;16.53;;;3.53;;
4232;SDS011;2130;48.472;11.934;2024-01-30T01:05:18;19.33;;;4.37;;
4232;SDS011;2130;48.472;11.934;2024-01-30T01:07:49;21.93;;;4.23;;
4232;SDS011;2130;48.472;11.934;2024-01-30T01:10:20;24.73;;;4.10;;
4232;SDS011;2130;48.472;11.934;2024-01-30T01:12:51;17.80;;;4.20;;
4232;SDS011;2130;48.472;11.934;2024-01-30T01:15:22;16.30;;;3.23;;
4232;SDS011;2130;48.472;11.934;2024-01-30T01:17:56;16.23;;;2.80;;
4232;SDS011;2130;48.472;11.934;2024-01-30T01:20:26;17.97;;;3.50;;
4232;SDS011;2130;48.472;11.934;2024-01-30T01:22:56;17.40;;;3.40;;
4232;SDS011;2130;48.472;11.934;2024-01-30T01:25:27;17.50;;;3.70;;
4232;SDS011;2130;48.472;11.934;2024-01-30T01:27:56;17.07;;;3.60;;
4232;SDS011;2130;48.472;11.934;2024-01-30T01:30:29;18.07;;;3.77;;
4232;SDS011;2130;48.472;11.934;2024-01-30T01:32:59;18.33;;;3.20;;
4232;SDS011;2130;48.472;11.934;2024-01-30T01:35:30;17.07;;;4.23;;
4232;SDS011;2130;48.472;11.934;2024-01-30T01:38:00;16.10;;;3.20;;
4232;SDS011;2130;48.472;11.934;2024-01-30T01:40:31;16.53;;;3.37;;
4232;SDS011;2130;48.472;11.934;2024-01-30T01:43:02;16.77;;;3.53;;
4232;SDS011;2130;48.472;11.934;2024-01-30T01:45:32;16.33;;;2.67;;
4232;SDS011;2130;48.472;11.934;2024-01-30T01:48:01;16.57;;;2.87;;
4232;SDS011;2130;48.472;11.934;2024-01-30T01:50:34;16.20;;;3.30;;
4232;SDS011;2130;48.472;11.934;2024-01-30T01:53:04;15.23;;;2.50;;
4232;SDS011;2130;48.472;11.934;2024-01-30T01:55:36;18.30;;;2.77;;
4232;SDS011;2130;48.472;11.934;2024-01-30T01:58:06;17.13;;;3.77;;
4232;SDS011;2130;48.472;11.934;2024-01-30T02:00:37;17.93;;;4.23;;
4232;SDS011;2130;48.472;11.934;2024-01-30T02:03:09;18.17;;;3.30;;
4232;SDS011;2130;48.472;11.934;2024-01-30T02:05:40;17.50;;;3.47;;
4232;SDS011;2130;48.472;11.934;2024-01-30T02:08:09;15.33;;;3.03;;
4232;SDS011;2130;48.472;11.934;2024-01-30T02:10:40;19.10;;;3.77;;
4232;SDS011;2130;48.472;11.934;2024-01-30T02:13:10;15.70;;;3.10;;
4232;SDS011;2130;48.472;11.934;2024-01-30T02:15:39;17.97;;;2.90;;
4232;SDS011;2130;48.472;11.934;2024-01-30T02:18:10;18.27;;;3.53;;
4232;SDS011;2130;48.472;11.934;2024-01-30T02:20:40;17.13;;;3.10;;
4232;SDS011;2130;48.472;11.934;2024-01-30T02:23:11;18.53;;;3.63;;
4232;SDS011;2130;48.472;11.934;2024-01-30T02:25:41;16.47;;;2.83;;
4232;SDS011;2130;48.472;11.934;2024-01-30T02:28:13;19.33;;;3.37;;
4232;SDS011;2130;48.472;11.934;2024-01-30T02:30:43;16.27;;;3.10;;
4232;SDS011;2130;48.472;11.934;2024-01-30T02:33:13;17.60;;;3.50;;
4232;SDS011;2130;48.472;11.934;2024-01-30T02:35:43;16.07;;;2.53;;
4232;SDS011;2130;48.472;11.934;2024-01-30T02:38:15;17.73;;;3.70;;
4232;SDS011;2130;48.472;11.934;2024-01-30T02:40:45;17.47;;;3.43;;
4232;SDS011;2130;48.472;11.934;2024-01-30T02:43:15;16.67;;;3.07;;
4232;SDS011;2130;48.472;11.934;2024-01-30T02:45:45;15.73;;;2.77;;
4232;SDS011;2130;48.472;11.934;2024-01-30T02:48:14;17.07;;;3.37;;
4232;SDS011;2130;48.472;11.934;2024-01-30T02:50:44;16.00;;;2.10;;
4232;SDS011;2130;48.472;11.934;2024-01-30T02:53:15;25.57;;;3.13;;
4232;SDS011;2130;48.472;11.934;2024-01-30T02:55:45;15.27;;;2.80;;
4232;SDS011;2130;48.472;11.934;2024-01-30T02:58:14;15.67;;;2.90;;
4232;SDS011;2130;48.472;11.934;2024-01-30T03:00:44;17.00;;;2.77;;
4232;SDS011;2130;48.472;11.934;2024-01-30T03:03:14;16.67;;;2.80;;
4232;SDS011;2130;48.472;11.934;2024-01-30T03:05:44;17.33;;;3.87;;
4232;SDS011;2130;48.472;11.934;2024-01-30T03:08:16;19.30;;;2.70;;
4232;SDS011;2130;48.472;11.934;2024-01-30T03:10:46;16.97;;;3.37;;
4232;SDS011;2130;48.472;11.934;2024-01-30T03:13:16;16.40;;;3.27;;
4232;SDS011;2130;48.472;11.934;2024-01-30T03:15:46;15.27;;;2.53;;
4232;SDS011;2130;48.472;11.934;2024-01-30T03:18:15;16.10;;;2.67;;
4232;SDS011;2130;48.472;11.934;2024-01-30T03:20:44;17.00;;;3.80;;
4232;SDS011;2130;48.472;11.934;2024-01-30T03:23:13;17.57;;;3.00;;
4232;SDS011;2130;48.472;11.934;2024-01-30T03:25:44;23.20;;;3.93;;
4232;SDS011;2130;48.472;11.934;2024-01-30T03:28:15;16.03;;;2.73;;
4232;SDS011;2130;48.472;11.934;2024-01-30T03:30:44;17.57;;;3.00;;
4232;SDS011;2130;48.472;11.934;2024-01-30T03:33:13;16.13;;;3.00;;
4232;SDS011;2130;48.472;11.934;2024-01-30T03:35:43;16.97;;;3.20;;
4232;SDS011;2130;48.472;11.934;2024-01-30T03:38:14;17.97;;;3.63;;
4232;SDS011;2130;48.472;11.934;2024-01-30T03:40:45;15.57;;;2.93;;
4232;SDS011;2130;48.472;11.934;2024-01-30T03:43:14;15.03;;;2.50;;
4232;SDS011;2130;48.472;11.934;2024-01-30T03:45:44;15.10;;;2.50;;
4232;SDS011;2130;48.472;11.934;2024-01-30T03:48:15;18.00;;;3.20;;
4232;SDS011;2130;48.472;11.934;2024-01-30T03:50:45;15.87;;;3.10;;
4232;SDS011;2130;48.472;11.934;2024-01-30T03:53:15;16.70;;;2.90;;
4232;SDS011;2130;48.472;11.934;2024-01-30T03:55:48;17.40;;;3.13;;
4232;SDS011;2130;48.472;11.934;2024-01-30T03:58:17;18.13;;;3.13;;
4232;SDS011;2130;48.472;11.934;2024-01-30T04:00:50;18.27;;;3.63;;
4232;SDS011;2130;48.472;11.934;2024-01-30T04:03:19;16.57;;;3.77;;
4232;SDS011;2130;48.472;11.934;2024-01-30T04:05:49;17.30;;;3.27;;
4232;SDS011;2130;48.472;11.934;2024-01-30T04:08:18;16.20;;;3.17;;
4232;SDS011;2130;48.472;11.934;2024-01-30T04:10:50;16.10;;;3.20;;
4232;SDS011;2130;48.472;11.934;2024-01-30T04:13:26;17.10;;;2.60;;
4232;SDS011;2130;48.472;11.934;2024-01-30T04:15:55;15.80;;;2.77;;
4232;SDS011;2130;48.472;11.934;2024-01-30T04:18:25;18.80;;;3.10;;
4232;SDS011;2130;48.472;11.934;2024-01-30T04:20:54;18.70;;;3.50;;
4232;SDS011;2130;48.472;11.934;2024-01-30T04:23:24;18.13;;;3.10;;
4232;SDS011;2130;48.472;11.934;2024-01-30T04:25:54;17.20;;;2.33;;
4232;SDS011;2130;48.472;11.934;2024-01-30T04:28:24;21.60;;;4.50;;
4232;SDS011;2130;48.472;11.934;2024-01-30T04:30:53;17.80;;;3.13;;
4232;SDS011;2130;48.472;11.934;2024-01-30T04:33:22;15.37;;;2.40;;
4232;SDS011;2130;48.472;11.934;2024-01-30T04:35:55;16.00;;;2.70;;
4232;SDS011;2130;48.472;11.934;2024-01-30T04:38:25;18.03;;;2.97;;
4232;SDS011;2130;48.472;11.934;2024-01-30T04:40:56;16.70;;;2.77;;
4232;SDS011;2130;48.472;11.934;2024-01-30T04:43:26;16.10;;;2.93;;
4232;SDS011;2130;48.472;11.934;2024-01-30T04:46:06;20.90;;;4.70;;
4232;SDS011;2130;48.472;11.934;2024-01-30T04:48:36;18.33;;;3.20;;
4232;SDS011;2130;48.472;11.934;2024-01-30T04:51:06;18.30;;;3.57;;
4232;SDS011;2130;48.472;11.934;2024-01-30T04:53:36;19.43;;;4.10;;
4232;SDS011;2130;48.472;11.934;2024-01-30T04:56:08;17.10;;;3.50;;
4232;SDS011;2130;48.472;11.934;2024-01-30T04:58:37;16.67;;;3.40;;
4232;SDS011;2130;48.472;11.934;2024-01-30T05:01:06;20.20;;;3.67;;
4232;SDS011;2130;48.472;11.934;2024-01-30T05:03:36;16.57;;;2.80;;
4232;SDS011;2130;48.472;11.934;2024-01-30T05:06:07;22.33;;;3.77;;
4232;SDS011;2130;48.472;11.934;2024-01-30T05:08:36;17.03;;;3.07;;
4232;SDS011;2130;48.472;11.934;2024-01-30T05:11:05;17.07;;;3.70;;
4232;SDS011;2130;48.472;11.934;2024-01-30T05:13:38;17.03;;;3.43;;
4232;SDS011;2130;48.472;11.934;2024-01-30T05:16:07;17.23;;;3.27;;
4232;SDS011;2130;48.472;11.934;2024-01-30T05:18:37;17.80;;;2.97;;
4232;SDS011;2130;48.472;11.934;2024-01-30T05:21:08;16.37;;;2.50;;
4232;SDS011;2130;48.472;11.934;2024-01-30T05:23:37;17.00;;;3.53;;
4232;SDS011;2130;48.472;11.934;2024-01-30T05:26:08;17.10;;;3.30;;
4232;SDS011;2130;48.472;11.934;2024-01-30T05:28:39;16.23;;;2.93;;
4232;SDS011;2130;48.472;11.934;2024-01-30T05:31:09;17.23;;;3.17;;
4232;SDS011;2130;48.472;11.934;2024-01-30T05:33:38;15.77;;;2.87;;
4232;SDS011;2130;48.472;11.934;2024-01-30T05:36:11;17.37;;;3.10;;
4232;SDS011;2130;48.472;11.934;2024-01-30T05:38:41;16.63;;;2.83;;
4232;SDS011;2130;48.472;11.934;2024-01-30T05:41:11;16.73;;;3.30;;
4232;SDS011;2130;48.472;11.934;2024-01-30T05:43:42;16.80;;;3.17;;
4232;SDS011;2130;48.472;11.934;2024-01-30T05:46:12;21.70;;;4.20;;
4232;SDS011;2130;48.472;11.934;2024-01-30T05:48:42;17.70;;;2.63;;
4232;SDS011;2130;48.472;11.934;2024-01-30T05:51:12;17.30;;;3.63;;
4232;SDS011;2130;48.472;11.934;2024-01-30T05:53:42;22.43;;;3.67;;
4232;SDS011;2130;48.472;11.934;2024-01-30T05:56:11;22.23;;;2.93;;
4232;SDS011;2130;48.472;11.934;2024-01-30T05:58:42;16.37;;;2.80;;
4232;SDS011;2130;48.472;11.934;2024-01-30T06:01:11;18.83;;;3.60;;
4232;SDS011;2130;48.472;11.934;2024-01-30T06:03:41;19.40;;;3.37;;
4232;SDS011;2130;48.472;11.934;2024-01-30T06:06:11;20.60;;;3.90;;
4232;SDS011;2130;48.472;11.934;2024-01-30T06:08:41;20.03;;;3.03;;
4232;SDS011;2130;48.472;11.934;2024-01-30T06:11:11;16.93;;;2.80;;
4232;SDS011;2130;48.472;11.934;2024-01-30T06:13:42;19.10;;;3.90;;
4232;SDS011;2130;48.472;11.934;2024-01-30T06:16:11;20.13;;;4.23;;
4232;SDS011;2130;48.472;11.934;2024-01-30T06:18:40;22.87;;;4.17;;
4232;SDS011;2130;48.472;11.934;2024-01-30T06:21:10;21.20;;;4.30;;
4232;SDS011;2130;48.472;11.934;2024-01-30T06:23:39;19.90;;;3.90;;
4232;SDS011;2130;48.472;11.934;2024-01-30T06:26:09;21.20;;;4.47;;
4232;SDS011;2130;48.472;11.934;2024-01-30T06:28:39;20.73;;;3.90;;
4232;SDS011;2130;48.472;11.934;2024-01-30T06:31:10;17.87;;;4.00;;
4232;SDS011;2130;48.472;11.934;2024-01-30T06:33:39;21.83;;;4.20;;
4232;SDS011;2130;48.472;11.934;2024-01-30T06:36:10;18.83;;;3.93;;
4232;SDS011;2130;48.472;11.934;2024-01-30T06:38:40;19.47;;;4.10;;
4232;SDS011;2130;48.472;11.934;2024-01-30T06:41:09;24.80;;;5.03;;
4232;SDS011;2130;48.472;11.934;2024-01-30T06:43:39;18.37;;;3.93;;
4232;SDS011;2130;48.472;11.934;2024-01-30T06:46:10;21.00;;;3.80;;
4232;SDS011;2130;48.472;11.934;2024-01-30T06:48:40;17.87;;;3.50;;
4232;SDS011;2130;48.472;11.934;2024-01-30T06:51:12;18.30;;;3.33;;
4232;SDS011;2130;48.472;11.934;2024-01-30T06:53:44;18.83;;;3.43;;
4232;SDS011;2130;48.472;11.934;2024-01-30T06:56:13;17.67;;;3.80;;
4232;SDS011;2130;48.472;11.934;2024-01-30T06:58:44;20.33;;;3.93;;
4232;SDS011;2130;48.472;11.934;2024-01-30T07:01:15;18.40;;;3.87;;
4232;SDS011;2130;48.472;11.934;2024-01-30T07:03:45;19.53;;;4.30;;
4232;SDS011;2130;48.472;11.934;2024-01-30T07:06:16;20.07;;;3.60;;
4232;SDS011;2130;48.472;11.934;2024-01-30T07:08:46;19.77;;;3.30;;
4232;SDS011;2130;48.472;11.934;2024-01-30T07:11:18;19.23;;;4.03;;
4232;SDS011;2130;48.472;11.934;2024-01-30T07:13:50;17.83;;;4.43;;
4232;SDS011;2130;48.472;11.934;2024-01-30T07:16:20;17.47;;;3.17;;
4232;SDS011;2130;48.472;11.934;2024-01-30T07:18:52;17.63;;;3.00;;
4232;SDS011;2130;48.472;11.934;2024-01-30T07:21:21;19.00;;;3.60;;
4232;SDS011;2130;48.472;11.934;2024-01-30T07:23:56;18.87;;;4.17;;
4232;SDS011;2130;48.472;11.934;2024-01-30T07:26:26;19.47;;;4.10;;
4232;SDS011;2130;48.472;11.934;2024-01-30T07:28:56;36.53;;;4.50;;
4232;SDS011;2130;48.472;11.934;2024-01-30T07:31:26;21.00;;;4.00;;
4232;SDS011;2130;48.472;11.934;2024-01-30T07:34:00;18.20;;;3.50;;
4232;SDS011;2130;48.472;11.934;2024-01-30T07:36:31;18.63;;;3.60;;
4232;SDS011;2130;48.472;11.934;2024-01-30T07:39:00;17.33;;;3.87;;
4232;SDS011;2130;48.472;11.934;2024-01-30T07:41:30;18.03;;;3.93;;
4232;SDS011;2130;48.472;11.934;2024-01-30T07:44:00;19.40;;;4.43;;
4232;SDS011;2130;48.472;11.934;2024-01-30T07:46:30;17.03;;;3.60;;
4232;SDS011;2130;48.472;11.934;2024-01-30T07:49:00;17.43;;;3.43;;
4232;SDS011;2130;48.472;11.934;2024-01-30T07:51:29;20.00;;;3.70;;
4232;SDS011;2130;48.472;11.934;2024-01-30T07:54:00;17.47;;;3.77;;
4232;SDS011;2130;48.472;11.934;2024-01-30T07:56:30;17.87;;;3.60;;
4232;SDS011;2130;48.472;11.934;2024-01-30T07:58:59;17.07;;;3.37;;
4232;SDS011;2130;48.472;11.934;2024-01-30T08:01:28;18.47;;;3.73;;
4232;SDS011;2130;48.472;11.934;2024-01-30T08:03:59;15.10;;;2.37;;
4232;SDS011;2130;48.472;11.934;2024-01-30T08:06:28;20.53;;;4.53;;
4232;SDS011;2130;48.472;11.934;2024-01-30T08:08:57;16.13;;;2.63;;
4232;SDS011;2130;48.472;11.934;2024-01-30T08:11:26;18.03;;;3.53;;
4232;SDS011;2130;48.472;11.934;2024-01-30T08:13:56;17.23;;;3.00;;
4232;SDS011;2130;48.472;11.934;2024-01-30T08:16:26;15.63;;;3.07;;
4232;SDS011;2130;48.472;11.934;2024-01-30T08:18:55;25.10;;;4.10;;
4232;SDS011;2130;48.472;11.934;2024-01-30T08:21:27;18.17;;;3.37;;
4232;SDS011;2130;48.472;11.934;2024-01-30T08:23:57;17.30;;;4.07;;
4232;SDS011;2130;48.472;11.934;2024-01-30T08:26:25;23.23;;;4.17;;
4232;SDS011;2130;48.472;11.934;2024-01-30T08:28:55;20.73;;;4.43;;
4232;SDS011;2130;48.472;11.934;2024-01-30T08:31:25;15.70;;;3.57;;
4232;SDS011;2130;48.472;11.934;2024-01-30T08:33:54;21.93;;;4.70;;
4232;SDS011;2130;48.472;11.934;2024-01-30T08:36:23;20.90;;;3.50;;
4232;SDS011;2130;48.472;11.934;2024-01-30T08:38:56;22.97;;;3.40;;
4232;SDS011;2130;48.472;11.934;2024-01-30T08:41:30;20.20;;;3.53;;
4232;SDS011;2130;48.472;11.934;2024-01-30T08:44:00;18.53;;;3.77;;
4232;SDS011;2130;48.472;11.934;2024-01-30T08:46:30;15.53;;;3.50;;
4232;SDS011;2130;48.472;11.934;2024-01-30T08:48:59;17.73;;;4.00;;
4232;SDS011;2130;48.472;11.934;2024-01-30T08:51:28;17.73;;;4.27;;
4232;SDS011;2130;48.472;11.934;2024-01-30T08:53:59;17.33;;;4.07;;
4232;SDS011;2130;48.472;11.934;2024-01-30T08:56:29;19.70;;;4.37;;
4232;SDS011;2130;48.472;11.934;2024-01-30T08:58:59;21.30;;;5.20;;
4232;SDS011;2130;48.472;11.934;2024-01-30T09:01:28;19.30;;;4.90;;
4232;SDS011;2130;48.472;11.934;2024-01-30T09:03:59;19.23;;;5.20;;
4232;SDS011;2130;48.472;11.934;2024-01-30T09:06:29;19.30;;;5.07;;
4232;SDS011;2130;48.472;11.934;2024-01-30T09:09:01;17.80;;;5.00;;
4232;SDS011;2130;48.472;11.934;2024-01-30T09:11:34;19.50;;;5.40;;
4232;SDS011;2130;48.472;11.934;2024-01-30T09:14:04;20.23;;;4.50;;
4232;SDS011;2130;48.472;11.934;2024-01-30T09:16:33;18.17;;;4.30;;
4232;SDS011;2130;48.472;11.934;2024-01-30T09:19:03;16.87;;;3.60;;
4232;SDS011;2130;48.472;11.934;2024-01-30T09:21:33;20.17;;;4.43;;
4232;SDS011;2130;48.472;11.934;2024-01-30T09:24:04;17.50;;;4.33;;
4232;SDS011;2130;48.472;11.934;2024-01-30T09:26:34;20.53;;;5.33;;
4232;SDS011;2130;48.472;11.934;2024-01-30T09:29:04;19.20;;;4.20;;
4232;SDS011;2130;48.472;11.934;2024-01-30T09:31:34;17.03;;;4.33;;
4232;SDS011;2130;48.472;11.934;2024-01-30T09:34:03;17.33;;;4.50;;
4232;SDS011;2130;48.472;11.934;2024-01-30T09:36:32;17.63;;;4.77;;
4232;SDS011;2130;48.472;11.934;2024-01-30T09:39:01;19.33;;;5.83;;
4232;SDS011;2130;48.472;11.934;2024-01-30T09:41:33;19.13;;;4.70;;
4232;SDS011;2130;48.472;11.934;2024-01-30T09:44:07;18.60;;;4.83;;
4232;SDS011;2130;48.472;11.934;2024-01-30T09:46:38;18.23;;;3.80;;
4232;SDS011;2130;48.472;11.934;2024-01-30T09:49:08;18.80;;;4.40;;
4232;SDS011;2130;48.472;11.934;2024-01-30T09:51:37;21.30;;;4.90;;
4232;SDS011;2130;48.472;11.934;2024-01-30T09:54:09;17.27;;;4.60;;
4232;SDS011;2130;48.472;11.934;2024-01-30T09:56:38;19.10;;;5.03;;
4232;SDS011;2130;48.472;11.934;2024-01-30T09:59:08;17.47;;;4.63;;
4232;SDS011;2130;48.472;11.934;2024-01-30T10:01:37;17.23;;;3.70;;
4232;SDS011;2130;48.472;11.934;2024-01-30T10:04:07;16.67;;;3.93;;
4232;SDS011;2130;48.472;11.934;2024-01-30T10:06:37;17.50;;;4.17;;
4232;SDS011;2130;48.472;11.934;2024-01-30T10:09:06;16.73;;;4.30;;
4232;SDS011;2130;48.472;11.934;2024-01-30T10:11:38;17.10;;;4.50;;
4232;SDS011;2130;48.472;11.934;2024-01-30T10:14:07;21.03;;;4.03;;
4232;SDS011;2130;48.472;11.934;2024-01-30T10:16:38;17.63;;;3.37;;
4232;SDS011;2130;48.472;11.934;2024-01-30T10:19:09;16.83;;;3.23;;
4232;SDS011;2130;48.472;11.934;2024-01-30T10:21:39;19.50;;;4.73;;
4232;SDS011;2130;48.472;11.934;2024-01-30T10:24:09;15.73;;;4.03;;
4232;SDS011;2130;48.472;11.934;2024-01-30T10:26:43;16.83;;;3.90;;
4232;SDS011;2130;48.472;11.934;2024-01-30T10:29:12;16.47;;;3.60;;
4232;SDS011;2130;48.472;11.934;2024-01-30T10:31:41;17.60;;;4.10;;
4232;SDS011;2130;48.472;11.934;2024-01-30T10:34:10;17.10;;;4.43;;
4232;SDS011;2130;48.472;11.934;2024-01-30T10:36:49;15.50;;;4.33;;
4232;SDS011;2130;48.472;11.934;2024-01-30T10:39:19;15.97;;;4.30;;
4232;SDS011;2130;48.472;11.934;2024-01-30T10:41:50;16.87;;;4.07;;
4232;SDS011;2130;48.472;11.934;2024-01-30T10:44:23;15.20;;;3.67;;
4232;SDS011;2130;48.472;11.934;2024-01-30T10:46:56;17.17;;;4.33;;
4232;SDS011;2130;48.472;11.934;2024-01-30T10:49:27;17.03;;;3.80;;
4232;SDS011;2130;48.472;11.934;2024-01-30T10:51:58;16.43;;;4.60;;
4232;SDS011;2130;48.472;11.934;2024-01-30T10:54:28;15.90;;;3.70;;
4232;SDS011;2130;48.472;11.934;2024-01-30T10:57:00;15.90;;;4.53;;
4232;SDS011;2130;48.472;11.934;2024-01-30T10:59:31;16.30;;;4.93;;
4232;SDS011;2130;48.472;11.934;2024-01-30T11:02:03;16.90;;;5.07;;
4232;SDS011;2130;48.472;11.934;2024-01-30T11:04:36;16.63;;;4.20;;
4232;SDS011;2130;48.472;11.934;2024-01-30T11:07:15;15.20;;;4.57;;
4232;SDS011;2130;48.472;11.934;2024-01-30T11:09:48;19.30;;;5.37;;
4232;SDS011;2130;48.472;11.934;2024-01-30T11:12:22;15.60;;;4.20;;
4232;SDS011;2130;48.472;11.934;2024-01-30T11:15:03;13.60;;;3.60;;
4232;SDS011;2130;48.472;11.934;2024-01-30T11:17:44;15.93;;;4.10;;
4232;SDS011;2130;48.472;11.934;2024-01-30T11:20:15;19.03;;;4.10;;
4232;SDS011;2130;48.472;11.934;2024-01-30T11:22:47;13.77;;;3.67;;
4232;SDS011;2130;48.472;11.934;2024-01-30T11:25:19;16.17;;;3.93;;
4232;SDS011;2130;48.472;11.934;2024-01-30T11:27:52;18.23;;;4.90;;
4232;SDS011;2130;48.472;11.934;2024-01-30T11:30:23;13.67;;;4.50;;
4232;SDS011;2130;48.472;11.934;2024-01-30T11:33:01;14.40;;;4.40;;
4232;SDS011;2130;48.472;11.934;2024-01-30T11:35:34;22.60;;;5.57;;
4232;SDS011;2130;48.472;11.934;2024-01-30T11:38:04;15.07;;;4.73;;
4232;SDS011;2130;48.472;11.934;2024-01-30T11:40:36;14.63;;;4.13;;
4232;SDS011;2130;48.472;11.934;2024-01-30T11:43:08;15.03;;;4.40;;
4232;SDS011;2130;48.472;11.934;2024-01-30T11:45:39;14.43;;;4.60;;
4232;SDS011;2130;48.472;11.934;2024-01-30T11:48:09;18.50;;;5.43;;
4232;SDS011;2130;48.472;11.934;2024-01-30T11:50:41;22.33;;;5.20;;
4232;SDS011;2130;48.472;11.934;2024-01-30T11:53:11;14.73;;;4.57;;
4232;SDS011;2130;48.472;11.934;2024-01-30T11:55:41;16.93;;;4.27;;
4232;SDS011;2130;48.472;11.934;2024-01-30T11:58:13;14.53;;;4.63;;
4232;SDS011;2130;48.472;11.934;2024-01-30T12:00:42;13.50;;;4.80;;
4232;SDS011;2130;48.472;11.934;2024-01-30T12:03:11;14.97;;;4.67;;
4232;SDS011;2130;48.472;11.934;2024-01-30T12:05:41;14.40;;;4.40;;
4232;SDS011;2130;48.472;11.934;2024-01-30T12:08:14;16.73;;;4.53;;
4232;SDS011;2130;48.472;11.934;2024-01-30T12:10:45;13.67;;;3.83;;
4232;SDS011;2130;48.472;11.934;2024-01-30T12:13:15;13.27;;;4.00;;
4232;SDS011;2130;48.472;11.934;2024-01-30T12:15:46;13.67;;;4.67;;
4232;SDS011;2130;48.472;11.934;2024-01-30T12:18:18;23.70;;;5.07;;
4232;SDS011;2130;48.472;11.934;2024-01-30T12:20:56;13.60;;;4.07;;
4232;SDS011;2130;48.472;11.934;2024-01-30T12:23:26;17.77;;;4.50;;
4232;SDS011;2130;48.472;11.934;2024-01-30T12:25:56;11.43;;;4.07;;
4232;SDS011;2130;48.472;11.934;2024-01-30T12:28:28;19.83;;;3.90;;
4232;SDS011;2130;48.472;11.934;2024-01-30T12:31:00;14.33;;;4.27;;
4232;SDS011;2130;48.472;11.934;2024-01-30T12:33:31;13.70;;;4.33;;
4232;SDS011;2130;48.472;11.934;2024-01-30T12:36:01;14.57;;;4.00;;
4232;SDS011;2130;48.472;11.934;2024-01-30T12:38:32;10.77;;;3.13;;
4232;SDS011;2130;48.472;11.934;2024-01-30T12:41:01;19.30;;;4.10;;
4232;SDS011;2130;48.472;11.934;2024-01-30T12:43:32;12.37;;;2.90;;
4232;SDS011;2130;48.472;11.934;2024-01-30T12:46:05;10.53;;;3.03;;
4232;SDS011;2130;48.472;11.934;2024-01-30T12:48:35;11.33;;;2.80;;
4232;SDS011;2130;48.472;11.934;2024-01-30T12:51:05;14.23;;;4.17;;
4232;SDS011;2130;48.472;11.934;2024-01-30T12:53:35;11.50;;;3.30;;
4232;SDS011;2130;48.472;11.934;2024-01-30T12:56:04;13.43;;;2.80;;
4232;SDS011;2130;48.472;11.934;2024-01-30T12:58:35;11.33;;;2.80;;
4232;SDS011;2130;48.472;11.934;2024-01-30T13:01:04;9.80;;;2.70;;
4232;SDS011;2130;48.472;11.934;2024-01-30T13:03:34;12.80;;;3.00;;
4232;SDS011;2130;48.472;11.934;2024-01-30T13:06:04;11.80;;;3.00;;
4232;SDS011;2130;48.472;11.934;2024-01-30T13:08:35;9.33;;;2.63;;
4232;SDS011;2130;48.472;11.934;2024-01-30T13:11:05;9.97;;;2.80;;
4232;SDS011;2130;48.472;11.934;2024-01-30T13:13:45;9.33;;;2.37;;
4232;SDS011;2130;48.472;11.934;2024-01-30T13:16:14;8.60;;;2.33;;
4232;SDS011;2130;48.472;11.934;2024-01-30T13:18:45;11.10;;;3.20;;
4232;SDS011;2130;48.472;11.934;2024-01-30T13:21:14;11.20;;;2.70;;
4232;SDS011;2130;48.472;11.934;2024-01-30T13:23:44;15.57;;;3.00;;
4232;SDS011;2130;48.472;11.934;2024-01-30T13:26:14;10.53;;;2.80;;
4232;SDS011;2130;48.472;11.934;2024-01-30T13:28:45;9.53;;;2.50;;
4232;SDS011;2130;48.472;11.934;2024-01-30T13:31:16;12.67;;;2.97;;
4232;SDS011;2130;48.472;11.934;2024-01-30T13:33:47;14.10;;;3.70;;
4232;SDS011;2130;48.472;11.934;2024-01-30T13:36:17;18.00;;;3.80;;
4232;SDS011;2130;48.472;11.934;2024-01-30T13:38:47;12.40;;;3.37;;
4232;SDS011;2130;48.472;11.934;2024-01-30T13:41:16;10.47;;;2.67;;
4232;SDS011;2130;48.472;11.934;2024-01-30T13:43:48;10.10;;;2.77;;
4232;SDS011;2130;48.472;11.934;2024-01-30T13:46:19;8.73;;;2.13;;
4232;SDS011;2130;48.472;11.934;2024-01-30T13:48:50;10.17;;;2.60;;
4232;SDS011;2130;48.472;11.934;2024-01-30T13:51:20;14.90;;;2.57;;
4232;SDS011;2130;48.472;11.934;2024-01-30T13:53:52;10.10;;;2.67;;
4232;SDS011;2130;48.472;11.934;2024-01-30T13:56:22;9.00;;;2.10;;
4232;SDS011;2130;48.472;11.934;2024-01-30T13:58:53;10.77;;;2.20;;
4232;SDS011;2130;48.472;11.934;2024-01-30T14:01:25;9.33;;;2.50;;
4232;SDS011;2130;48.472;11.934;2024-01-30T14:03:54;10.10;;;2.23;;
4232;SDS011;2130;48.472;11.934;2024-01-30T14:06:24;8.80;;;1.90;;
4232;SDS011;2130;48.472;11.934;2024-01-30T14:08:54;8.97;;;1.70;;
4232;SDS011;2130;48.472;11.934;2024-01-30T14:11:34;9.20;;;1.60;;
4232;SDS011;2130;48.472;11.934;2024-01-30T14:14:05;8.00;;;2.00;;
4232;SDS011;2130;48.472;11.934;2024-01-30T14:16:35;10.23;;;2.13;;
4232;SDS011;2130;48.472;11.934;2024-01-30T14:19:06;8.13;;;1.93;;
4232;SDS011;2130;48.472;11.934;2024-01-30T14:21:35;8.30;;;2.07;;
4232;SDS011;2130;48.472;11.934;2024-01-30T14:24:07;9.57;;;2.47;;
4232;SDS011;2130;48.472;11.934;2024-01-30T14:26:38;7.40;;;1.50;;
4232;SDS011;2130;48.472;11.934;2024-01-30T14:29:09;13.00;;;2.07;;
4232;SDS011;2130;48.472;11.934;2024-01-30T14:31:38;8.60;;;1.83;;
4232;SDS011;2130;48.472;11.934;2024-01-30T14:34:08;7.67;;;1.80;;
4232;SDS011;2130;48.472;11.934;2024-01-30T14:36:40;9.43;;;2.20;;
4232;SDS011;2130;48.472;11.934;2024-01-30T14:39:10;11.30;;;1.97;;
4232;SDS011;2130;48.472;11.934;2024-01-30T14:41:40;8.30;;;1.90;;
4232;SDS011;2130;48.472;11.934;2024-01-30T14:44:11;8.90;;;2.10;;
4232;SDS011;2130;48.472;11.934;2024-01-30T14:46:41;10.13;;;1.90;;
4232;SDS011;2130;48.472;11.934;2024-01-30T14:49:11;7.87;;;1.90;;
4232;SDS011;2130;48.472;11.934;2024-01-30T14:51:40;13.10;;;2.17;;
4232;SDS011;2130;48.472;11.934;2024-01-30T14:54:09;8.13;;;2.00;;
4232;SDS011;2130;48.472;11.934;2024-01-30T14:56:39;11.63;;;2.23;;
4232;SDS011;2130;48.472;11.934;2024-01-30T14:59:08;8.10;;;2.20;;
4232;SDS011;2130;48.472;11.934;2024-01-30T15:01:39;9.30;;;2.80;;
4232;SDS011;2130;48.472;11.934;2024-01-30T15:04:09;12.43;;;2.80;;
4232;SDS011;2130;48.472;11.934;2024-01-30T15:06:41;11.70;;;2.77;;